Time;durP1;ratioP1;P1;durP2;ratioP2;P2;SDS_P1;SDS_P2;PMS_P1;PMS_P2;Temp;Humidity;BMP_temperature;BMP_pressure;BME280_temperature;BME280_humidity;BME280_pressure;Samples;Min_cycle;Max_cycle;Signal;HPM_P1;HPM_P2
2022/10/13 00:01:34;;;;;;;13.40;6.40;;;;;;;4.52;89.59;97509.67;105055;1305;25447;-83
2022/10/13 00:04:05;;;;;;;9.50;5.60;;;;;;;4.50;89.68;97507.91;105061;1292;22729;-82
2022/10/13 00:06:36;;;;;;;10.90;6.10;;;;;;;4.50;90.12;97511.91;105008;1298;22649;-83
2022/10/13 00:09:08;;;;;;;13.50;7.50;;;;;;;4.59;90.23;97512.18;105095;1289;25325;-83
2022/10/13 00:11:39;;;;;;;12.70;6.00;;;;;;;4.63;90.34;97514.04;105049;1304;22520;-83
2022/10/13 00:14:10;;;;;;;12.10;6.00;;;;;;;4.66;90.18;97512.20;105033;1293;22488;-83
2022/10/13 00:16:41;;;;;;;11.60;6.80;;;;;;;4.65;90.07;97508.33;105024;1297;23104;-83
2022/10/13 00:19:12;;;;;;;13.30;6.90;;;;;;;4.65;90.00;97505.02;105054;1285;22464;-83
2022/10/13 00:21:43;;;;;;;12.90;7.20;;;;;;;4.69;89.92;97504.38;105041;1304;23014;-83
2022/10/13 00:24:14;;;;;;;10.80;6.50;;;;;;;4.71;90.03;97502.65;105031;1295;22467;-83
2022/10/13 00:26:45;;;;;;;11.50;6.70;;;;;;;4.70;89.98;97499.67;104998;1295;22521;-83
2022/10/13 00:29:16;;;;;;;15.10;7.50;;;;;;;4.71;89.87;97499.98;105054;1306;22582;-83
2022/10/13 00:31:47;;;;;;;11.40;5.30;;;;;;;4.70;89.67;97498.54;105068;1306;23358;-83
2022/10/13 00:34:18;;;;;;;8.50;5.50;;;;;;;4.65;89.29;97499.92;104999;1298;25610;-83
2022/10/13 00:36:50;;;;;;;9.70;5.90;;;;;;;4.50;88.97;97499.79;105048;1306;22464;-83
2022/10/13 00:39:21;;;;;;;8.60;5.70;;;;;;;4.35;89.08;97501.31;105138;1278;22484;-83
2022/10/13 00:41:53;;;;;;;9.60;5.60;;;;;;;4.33;89.45;97497.21;105076;1306;22473;-83
2022/10/13 00:45:01;;;;;;;10.80;5.90;;;;;;;4.33;89.59;97500.72;105140;1303;25920;-83
2022/10/13 00:47:35;;;;;;;10.90;6.90;;;;;;;4.34;89.69;97496.26;105059;1306;22510;-83
2022/10/13 00:50:11;;;;;;;13.00;7.30;;;;;;;4.41;90.00;97492.86;105062;1282;22466;-83
2022/10/13 00:52:44;;;;;;;11.00;6.80;;;;;;;4.49;90.37;97488.23;105051;1297;25939;-83
2022/10/13 00:55:23;;;;;;;11.60;7.00;;;;;;;4.50;90.37;97488.11;105024;1306;22466;-83
2022/10/13 00:57:57;;;;;;;12.60;7.20;;;;;;;4.55;90.39;97487.43;105056;1294;22600;-82
2022/10/13 01:00:29;;;;;;;11.80;7.30;;;;;;;4.59;90.43;97484.95;105045;1300;22485;-83
2022/10/13 01:03:00;;;;;;;14.50;7.80;;;;;;;4.61;90.46;97480.40;105069;1298;22475;-82
2022/10/13 01:05:32;;;;;;;16.30;8.40;;;;;;;4.69;90.73;97475.55;105022;1298;22469;-82
2022/10/13 01:08:08;;;;;;;12.90;6.70;;;;;;;4.76;90.77;97472.76;105085;1306;24344;-82
2022/10/13 01:10:54;;;;;;;12.80;7.30;;;;;;;4.82;90.76;97473.48;105098;1298;22477;-83
2022/10/13 01:13:34;;;;;;;12.20;7.70;;;;;;;4.82;90.66;97466.82;105095;1297;22562;-82
2022/10/13 01:16:12;;;;;;;10.80;5.80;;;;;;;4.88;90.90;97467.86;105035;1305;22471;-82
2022/10/13 01:18:48;;;;;;;14.20;8.50;;;;;;;4.92;90.99;97464.26;105031;1300;22472;-83
2022/10/13 01:21:28;;;;;;;13.80;7.70;;;;;;;4.94;90.69;97461.75;105029;1291;22475;-82
2022/10/13 01:24:26;;;;;;;11.90;7.10;;;;;;;4.92;90.65;97459.11;105076;1296;22415;-82
2022/10/13 01:27:17;;;;;;;10.30;6.60;;;;;;;4.89;90.16;97456.85;105004;1306;30476;-82
2022/10/13 01:30:07;;;;;;;12.20;7.30;;;;;;;4.88;90.38;97454.88;105064;1291;22497;-82
2022/10/13 01:33:01;;;;;;;13.80;7.70;;;;;;;4.94;90.88;97457.01;105022;1306;22470;-82
2022/10/13 01:35:49;;;;;;;15.50;8.90;;;;;;;4.92;90.79;97453.95;105005;1303;22478;-83
2022/10/13 01:38:29;;;;;;;13.20;7.80;;;;;;;4.90;90.71;97454.00;105067;1296;22523;-84
2022/10/13 01:41:10;;;;;;;12.70;8.10;;;;;;;4.88;90.68;97452.17;105061;1297;22541;-84
2022/10/13 01:43:46;;;;;;;12.00;7.90;;;;;;;4.88;90.47;97447.96;105097;1300;22490;-84
2022/10/13 01:46:22;;;;;;;12.00;7.60;;;;;;;4.87;90.36;97447.94;105053;1304;22477;-84
2022/10/13 01:48:56;;;;;;;11.90;7.70;;;;;;;4.84;90.12;97445.56;104977;1304;22568;-84
2022/10/13 01:51:30;;;;;;;12.40;7.60;;;;;;;4.80;90.11;97444.65;105039;1298;22556;-84
2022/10/13 01:54:01;;;;;;;13.50;7.90;;;;;;;4.73;90.15;97444.63;105044;1305;22483;-84
2022/10/13 01:56:32;;;;;;;12.20;8.40;;;;;;;4.69;90.07;97447.02;105027;1281;26110;-83
2022/10/13 01:59:05;;;;;;;13.90;8.00;;;;;;;4.64;90.22;97444.95;105050;1306;22875;-84
2022/10/13 02:01:49;;;;;;;11.80;7.00;;;;;;;4.55;89.81;97446.58;105066;1305;22489;-84
2022/10/13 02:04:31;;;;;;;11.20;6.20;;;;;;;4.34;89.40;97445.39;105068;1285;22451;-83
2022/10/13 02:07:11;;;;;;;10.40;6.00;;;;;;;4.16;89.40;97444.44;105142;1282;33865;-83
2022/10/13 02:09:50;;;;;;;9.50;6.60;;;;;;;4.07;89.80;97443.81;105125;1289;25262;-83
2022/10/13 02:12:28;;;;;;;13.30;7.60;;;;;;;4.08;90.41;97443.58;105153;1298;22507;-83
2022/10/13 02:15:01;;;;;;;11.00;7.50;;;;;;;4.13;91.16;97439.19;105008;1306;22481;-83
2022/10/13 02:17:33;;;;;;;12.40;8.00;;;;;;;4.27;91.88;97438.80;104989;1306;25230;-83
2022/10/13 02:20:08;;;;;;;19.30;7.70;;;;;;;4.40;92.35;97433.58;105002;1306;22477;-84
2022/10/13 02:22:46;;;;;;;9.90;7.20;;;;;;;4.48;92.35;97435.90;105066;1298;22642;-83
2022/10/13 02:25:17;;;;;;;12.10;8.00;;;;;;;4.48;92.18;97434.39;104969;1291;22468;-84
2022/10/13 02:27:49;;;;;;;10.70;7.50;;;;;;;4.49;92.03;97428.58;105008;1306;23273;-83
2022/10/13 02:30:25;;;;;;;11.20;7.70;;;;;;;4.50;92.03;97430.95;104978;1306;22462;-83
2022/10/13 02:32:56;;;;;;;15.10;8.40;;;;;;;4.50;91.99;97423.16;105055;1297;22494;-84
2022/10/13 02:35:28;;;;;;;12.70;7.60;;;;;;;4.51;92.06;97420.98;104994;1285;22470;-85
2022/10/13 02:38:00;;;;;;;11.20;7.30;;;;;;;4.52;91.91;97420.65;105074;1281;22480;-85
2022/10/13 02:40:35;;;;;;;9.80;7.00;;;;;;;4.52;91.73;97418.88;105073;1289;22473;-84
2022/10/13 02:43:06;;;;;;;13.70;7.00;;;;;;;4.50;91.46;97417.18;105057;1306;22493;-84
2022/10/13 02:45:37;;;;;;;10.20;7.30;;;;;;;4.53;91.84;97416.80;105055;1298;22475;-84
2022/10/13 02:48:09;;;;;;;11.30;7.90;;;;;;;4.54;91.77;97414.98;105061;1291;22480;-84
2022/10/13 02:50:40;;;;;;;10.20;6.70;;;;;;;4.47;91.51;97420.33;105087;1288;25212;-84
2022/10/13 02:53:11;;;;;;;11.50;6.90;;;;;;;4.40;91.28;97420.61;105062;1291;22525;-85
2022/10/13 02:55:42;;;;;;;14.20;7.10;;;;;;;4.37;91.35;97422.02;104948;1297;25225;-84
2022/10/13 02:58:13;;;;;;;9.70;6.90;;;;;;;4.33;91.44;97423.34;105014;1306;22493;-84
2022/10/13 03:00:44;;;;;;;11.90;6.60;;;;;;;4.30;91.49;97422.11;104981;1297;22594;-84
2022/10/13 03:03:15;;;;;;;10.20;7.20;;;;;;;4.31;91.61;97421.43;104966;1306;25478;-84
2022/10/13 03:05:47;;;;;;;13.90;7.20;;;;;;;4.31;91.83;97422.04;104960;1297;22850;-84
2022/10/13 03:08:18;;;;;;;10.50;7.10;;;;;;;4.34;92.41;97417.20;105071;1291;22476;-84
2022/10/13 03:10:51;;;;;;;11.60;6.90;;;;;;;4.44;92.86;97419.91;105079;1290;22481;-84
2022/10/13 03:13:22;;;;;;;11.40;7.10;;;;;;;4.50;92.81;97422.15;105032;1304;22503;-84
2022/10/13 03:15:53;;;;;;;12.40;8.20;;;;;;;4.50;92.74;97421.27;105100;1298;22460;-84
2022/10/13 03:18:24;;;;;;;12.40;7.50;;;;;;;4.48;92.47;97422.09;105115;1282;22514;-84
2022/10/13 03:21:01;;;;;;;13.60;8.00;;;;;;;4.45;92.29;97417.73;105129;1304;22481;-84
2022/10/13 03:23:32;;;;;;;11.10;6.80;;;;;;;4.43;92.44;97414.40;105097;1291;22534;-84
2022/10/13 03:26:05;;;;;;;12.90;7.70;;;;;;;4.37;91.97;97410.91;105049;1304;22468;-84
2022/10/13 03:28:38;;;;;;;13.10;8.40;;;;;;;4.31;91.97;97414.25;105132;1282;25266;-84
2022/10/13 03:31:11;;;;;;;10.60;7.10;;;;;;;4.30;92.03;97412.44;105138;1291;25213;-84
2022/10/13 03:33:43;;;;;;;11.60;7.30;;;;;;;4.32;92.15;97416.01;105088;1304;22477;-84
2022/10/13 03:36:14;;;;;;;8.70;6.50;;;;;;;4.32;92.22;97415.77;105075;1304;22471;-84
2022/10/13 03:38:46;;;;;;;11.20;7.80;;;;;;;4.31;92.18;97412.16;105146;1304;22485;-84
2022/10/13 03:41:18;;;;;;;13.40;7.90;;;;;;;4.29;92.08;97416.16;105116;1304;22477;-84
2022/10/13 03:43:49;;;;;;;11.40;7.30;;;;;;;4.25;92.13;97415.92;105163;1297;22502;-84
2022/10/13 03:46:27;;;;;;;8.90;6.70;;;;;;;4.21;92.18;97410.74;105078;1297;25226;-84
2022/10/13 03:48:58;;;;;;;8.90;6.80;;;;;;;4.21;92.52;97407.44;105194;1304;22508;-84
2022/10/13 03:51:29;;;;;;;9.90;7.10;;;;;;;4.21;92.49;97408.01;105125;1304;22476;-84
2022/10/13 03:54:00;;;;;;;12.40;8.20;;;;;;;4.17;92.19;97407.56;105113;1304;25044;-84
2022/10/13 03:56:34;;;;;;;12.90;6.70;;;;;;;4.13;92.25;97406.77;105128;1291;22466;-84
2022/10/13 03:59:11;;;;;;;12.90;6.70;;;;;;;4.11;92.37;97407.02;105140;1289;22491;-84
2022/10/13 04:01:42;;;;;;;13.10;7.30;;;;;;;4.14;92.61;97404.08;105133;1296;22490;-84
2022/10/13 04:04:14;;;;;;;11.30;7.20;;;;;;;4.18;92.70;97404.31;105150;1297;22582;-84
2022/10/13 04:06:45;;;;;;;12.50;6.70;;;;;;;4.21;92.76;97400.77;105016;1284;22465;-84
2022/10/13 04:09:16;;;;;;;11.90;7.30;;;;;;;4.24;92.76;97402.98;105070;1304;22470;-84
2022/10/13 04:11:49;;;;;;;9.50;6.50;;;;;;;4.26;92.64;97400.62;105063;1296;22517;-84
2022/10/13 04:14:21;;;;;;;11.90;7.50;;;;;;;4.26;92.61;97401.06;105064;1291;25355;-84
2022/10/13 04:16:52;;;;;;;9.20;6.70;;;;;;;4.26;92.45;97398.48;104988;1306;22884;-84
2022/10/13 04:19:23;;;;;;;8.90;6.80;;;;;;;4.25;92.28;97399.14;105081;1282;22462;-84
2022/10/13 04:21:54;;;;;;;10.40;6.90;;;;;;;4.24;92.35;97400.77;105051;1297;22495;-84
2022/10/13 04:24:25;;;;;;;8.80;6.40;;;;;;;4.20;92.36;97397.02;105018;1298;22481;-84
2022/10/13 04:26:56;;;;;;;11.80;7.20;;;;;;;4.12;92.31;97397.04;105028;1291;33360;-84
2022/10/13 04:29:28;;;;;;;8.80;6.50;;;;;;;4.04;92.72;97396.10;105107;1297;22480;-84
2022/10/13 04:32:03;;;;;;;11.50;7.50;;;;;;;3.99;93.08;97394.99;105048;1304;22477;-84
2022/10/13 04:34:34;;;;;;;11.40;7.40;;;;;;;3.93;93.02;97393.95;105027;1298;22489;-83
2022/10/13 04:37:05;;;;;;;11.80;7.50;;;;;;;3.90;93.10;97390.46;105059;1284;22476;-84
2022/10/13 04:39:36;;;;;;;11.10;7.00;;;;;;;3.91;93.31;97391.50;105029;1291;22578;-84
2022/10/13 04:42:08;;;;;;;8.80;6.70;;;;;;;3.90;93.03;97390.67;105076;1306;22486;-84
2022/10/13 04:44:39;;;;;;;10.60;6.70;;;;;;;3.88;92.84;97395.05;105009;1285;22566;-84
2022/10/13 04:47:10;;;;;;;10.90;7.90;;;;;;;3.86;92.49;97396.97;105123;1296;25513;-84
2022/10/13 04:49:42;;;;;;;10.70;7.20;;;;;;;3.82;92.28;97399.63;105182;1281;25384;-84
2022/10/13 04:52:13;;;;;;;8.90;6.30;;;;;;;3.76;92.05;97399.47;105120;1298;22521;-84
2022/10/13 04:54:46;;;;;;;8.90;6.50;;;;;;;3.70;91.97;97398.89;105096;1304;22467;-84
2022/10/13 04:57:17;;;;;;;11.20;6.90;;;;;;;3.69;91.90;97395.88;105155;1289;24513;-84
2022/10/13 04:59:51;;;;;;;9.40;6.70;;;;;;;3.69;91.98;97398.81;105128;1294;22476;-84
2022/10/13 05:02:22;;;;;;;8.90;6.90;;;;;;;3.52;91.60;97401.69;105129;1303;22540;-84
2022/10/13 05:04:53;;;;;;;10.70;7.40;;;;;;;3.39;92.34;97400.01;105114;1284;22602;-84
2022/10/13 05:07:24;;;;;;;13.40;7.60;;;;;;;3.57;93.59;97402.89;105107;1283;25254;-84
2022/10/13 05:09:57;;;;;;;12.40;7.30;;;;;;;3.76;94.03;97398.63;105188;1304;22554;-84
2022/10/13 05:12:30;;;;;;;10.40;7.60;;;;;;;3.89;93.94;97395.48;105112;1297;22487;-84
2022/10/13 05:15:05;;;;;;;12.80;7.60;;;;;;;3.98;93.85;97395.04;105069;1304;24580;-84
2022/10/13 05:17:36;;;;;;;10.50;7.50;;;;;;;4.06;93.71;97389.63;105117;1304;22511;-84
2022/10/13 05:20:09;;;;;;;11.60;6.80;;;;;;;4.24;93.71;97392.79;105062;1288;22490;-84
2022/10/13 05:22:41;;;;;;;9.70;6.70;;;;;;;4.41;93.01;97389.30;105084;1302;22484;-84
2022/10/13 05:25:13;;;;;;;9.90;7.10;;;;;;;4.61;92.73;97387.17;105037;1306;22482;-84
2022/10/13 05:27:45;;;;;;;10.70;7.60;;;;;;;4.98;92.90;97384.98;105113;1298;22600;-84
2022/10/13 05:30:17;;;;;;;10.60;7.10;;;;;;;5.46;92.68;97383.44;105073;1281;23949;-84
2022/10/13 05:32:48;;;;;;;11.30;6.20;;;;;;;5.96;92.31;97384.08;105110;1306;22534;-84
2022/10/13 05:35:19;;;;;;;9.80;6.60;;;;;;;6.60;92.23;97382.98;105029;1300;22485;-84
2022/10/13 05:37:51;;;;;;;9.00;6.20;;;;;;;7.28;91.61;97387.13;105073;1306;22516;-84
2022/10/13 05:40:22;;;;;;;8.60;6.00;;;;;;;7.92;90.69;97385.99;105063;1298;22464;-85
2022/10/13 05:42:54;;;;;;;7.80;5.70;;;;;;;8.47;89.26;97385.52;105125;1296;22470;-85
2022/10/13 05:45:28;;;;;;;9.90;5.60;;;;;;;9.01;88.15;97383.07;105040;1290;22485;-84
2022/10/13 05:47:59;;;;;;;6.40;4.60;;;;;;;9.64;86.92;97380.63;105139;1305;22478;-85
2022/10/13 05:50:30;;;;;;;7.60;5.60;;;;;;;10.21;85.63;97383.09;105067;1280;22533;-85
2022/10/13 05:53:02;;;;;;;8.00;5.80;;;;;;;10.77;84.42;97383.85;105079;1278;22463;-85
2022/10/13 05:55:33;;;;;;;8.10;5.30;;;;;;;11.40;83.43;97384.05;105050;1297;22474;-85
2022/10/13 05:58:04;;;;;;;9.20;5.90;;;;;;;11.86;81.75;97390.73;105096;1306;22523;-85
2022/10/13 06:00:35;;;;;;;9.40;5.90;;;;;;;12.34;80.44;97394.33;105064;1284;25352;-85
2022/10/13 06:03:11;;;;;;;7.60;5.00;;;;;;;12.66;78.55;97389.13;105103;1306;22461;-85
2022/10/13 06:05:46;;;;;;;9.20;5.90;;;;;;;13.06;77.15;97391.55;105056;1298;25326;-85
2022/10/13 06:08:17;;;;;;;9.20;5.90;;;;;;;13.24;75.55;97387.15;105119;1289;22509;-85
2022/10/13 06:10:48;;;;;;;9.50;6.30;;;;;;;13.42;74.02;97385.99;105083;1290;22477;-82
2022/10/13 06:13:22;;;;;;;9.50;6.20;;;;;;;13.45;72.85;97388.88;105075;1306;24631;-82
2022/10/13 06:15:53;;;;;;;7.70;5.80;;;;;;;13.77;72.41;97391.26;105082;1304;24529;-82
2022/10/13 06:18:24;;;;;;;9.20;6.40;;;;;;;13.83;70.32;97390.67;105169;1303;22514;-82
2022/10/13 06:20:55;;;;;;;8.00;6.00;;;;;;;14.12;70.89;97393.18;105137;1298;22542;-82
2022/10/13 06:23:26;;;;;;;8.10;5.70;;;;;;;14.73;69.69;97389.38;105156;1295;22542;-82
2022/10/13 06:26:00;;;;;;;8.90;5.30;;;;;;;15.21;67.73;97389.64;105051;1282;22472;-82
2022/10/13 06:28:31;;;;;;;7.10;5.80;;;;;;;15.86;67.14;97389.77;105071;1298;22485;-82
2022/10/13 06:31:06;;;;;;;8.10;6.30;;;;;;;16.40;65.76;97390.04;105070;1300;22484;-83
2022/10/13 06:33:37;;;;;;;8.00;5.70;;;;;;;16.79;64.33;97390.66;105076;1297;22991;-83
2022/10/13 06:36:12;;;;;;;7.90;5.70;;;;;;;17.02;61.76;97394.59;105056;1297;24337;-83
2022/10/13 06:38:44;;;;;;;8.80;6.30;;;;;;;16.64;59.78;97394.95;105143;1291;22502;-83
2022/10/13 06:41:15;;;;;;;7.40;6.10;;;;;;;16.27;58.71;97394.30;105155;1298;22463;-83
2022/10/13 06:43:46;;;;;;;7.50;6.10;;;;;;;16.24;58.24;97393.19;105163;1296;22460;-83
2022/10/13 06:46:18;;;;;;;8.20;5.80;;;;;;;16.43;58.96;97393.15;105051;1281;26298;-82
2022/10/13 06:48:51;;;;;;;7.80;6.30;;;;;;;16.79;57.60;97392.43;105139;1298;22473;-82
2022/10/13 06:51:23;;;;;;;8.00;5.70;;;;;;;17.22;58.21;97392.33;105130;1297;22676;-82
2022/10/13 06:53:55;;;;;;;8.00;5.50;;;;;;;17.60;56.64;97387.06;105131;1281;25263;-81
2022/10/13 06:56:26;;;;;;;11.00;6.20;;;;;;;17.80;56.51;97380.19;104981;1298;68982;-81
2022/10/13 06:58:57;;;;;;;7.00;5.70;;;;;;;18.13;54.73;97385.41;105065;1298;22477;-82
2022/10/13 07:01:29;;;;;;;7.60;5.30;;;;;;;18.48;54.12;97381.88;105101;1291;25891;-82
2022/10/13 07:04:00;;;;;;;7.00;5.40;;;;;;;18.90;54.22;97380.02;105084;1306;22592;-82
2022/10/13 07:06:31;;;;;;;7.10;4.90;;;;;;;19.55;53.50;97378.77;105028;1306;22479;-82
2022/10/13 07:09:05;;;;;;;8.60;5.80;;;;;;;19.71;51.28;97370.48;105064;1284;22467;-82
2022/10/13 07:11:37;;;;;;;8.10;5.30;;;;;;;19.45;51.77;97372.30;105083;1281;22516;-82
2022/10/13 07:14:11;;;;;;;6.50;4.50;;;;;;;19.67;51.48;97369.15;105063;1303;22518;-82
2022/10/13 07:16:42;;;;;;;8.20;5.30;;;;;;;19.94;50.47;97365.91;105017;1305;29194;-82
2022/10/13 07:19:13;;;;;;;7.30;4.80;;;;;;;19.93;49.88;97366.01;105059;1295;22629;-82
2022/10/13 07:21:44;;;;;;;6.40;4.90;;;;;;;20.18;49.55;97364.23;105065;1305;22481;-82
2022/10/13 07:24:15;;;;;;;6.80;5.00;;;;;;;20.29;49.20;97363.51;105107;1298;22470;-82
2022/10/13 07:26:46;;;;;;;6.70;5.30;;;;;;;20.84;49.77;97365.45;105031;1297;22507;-82
2022/10/13 07:29:20;;;;;;;6.90;5.00;;;;;;;21.59;48.74;97365.87;105068;1291;25237;-82
2022/10/13 07:31:51;;;;;;;6.70;4.70;;;;;;;21.57;46.53;97364.66;105069;1284;22474;-82
2022/10/13 07:34:22;;;;;;;8.60;5.50;;;;;;;20.77;45.72;97362.85;105099;1292;22695;-83
2022/10/13 07:36:53;;;;;;;7.40;5.20;;;;;;;19.88;44.34;97364.02;104999;1297;25310;-83
2022/10/13 07:39:24;;;;;;;7.10;5.30;;;;;;;18.77;45.48;97362.42;105080;1304;22463;-83
2022/10/13 07:41:55;;;;;;;6.90;5.00;;;;;;;18.62;46.46;97358.23;105046;1284;22461;-82
2022/10/13 07:44:27;;;;;;;8.10;5.80;;;;;;;18.82;47.19;97354.20;105069;1306;22471;-82
2022/10/13 07:46:58;;;;;;;8.90;5.90;;;;;;;19.48;47.79;97353.27;105037;1306;30480;-83
2022/10/13 07:49:29;;;;;;;8.00;5.90;;;;;;;20.24;46.74;97352.73;105094;1297;22498;-82
2022/10/13 07:52:02;;;;;;;8.60;6.10;;;;;;;20.69;46.77;97354.29;105124;1291;22481;-82
2022/10/13 07:54:34;;;;;;;7.90;6.00;;;;;;;21.21;46.03;97348.23;105061;1294;22474;-81
2022/10/13 07:57:05;;;;;;;8.10;5.10;;;;;;;21.49;44.44;97349.25;105057;1304;22488;-83
2022/10/13 07:59:36;;;;;;;8.30;4.60;;;;;;;21.13;43.81;97354.06;105052;1291;22474;-82
2022/10/13 08:02:08;;;;;;;6.20;4.70;;;;;;;20.97;44.03;97348.77;105077;1298;22763;-82
2022/10/13 08:04:39;;;;;;;8.10;5.00;;;;;;;21.08;44.54;97344.95;105027;1291;25210;-82
2022/10/13 08:07:10;;;;;;;7.30;4.60;;;;;;;21.48;44.75;97342.60;105093;1300;22610;-83
2022/10/13 08:09:42;;;;;;;9.70;4.70;;;;;;;21.59;43.88;97338.83;105095;1291;22482;-83
2022/10/13 08:12:12;;;;;;;10.70;5.30;;;;;;;21.60;43.44;97337.84;105053;1290;22468;-83
2022/10/13 08:14:44;;;;;;;11.20;5.30;;;;;;;21.13;43.51;97341.05;105015;1294;22480;-83
2022/10/13 08:17:14;;;;;;;9.60;5.10;;;;;;;20.99;43.66;97338.91;105099;1298;22484;-83
2022/10/13 08:19:45;;;;;;;10.70;5.40;;;;;;;21.17;44.39;97334.80;105059;1300;22476;-83
2022/10/13 08:22:17;;;;;;;8.10;5.50;;;;;;;21.02;43.91;97332.08;105103;1306;22516;-83
2022/10/13 08:24:48;;;;;;;8.50;5.20;;;;;;;20.89;44.73;97328.91;105020;1298;22915;-83
2022/10/13 08:27:22;;;;;;;7.90;5.10;;;;;;;20.88;44.35;97325.77;105150;1304;22901;-83
2022/10/13 08:29:53;;;;;;;8.90;5.10;;;;;;;20.49;44.35;97323.87;105183;1305;22470;-83
2022/10/13 08:32:25;;;;;;;9.70;4.70;;;;;;;20.07;44.92;97320.48;105159;1306;24522;-83
2022/10/13 08:34:56;;;;;;;6.50;4.50;;;;;;;19.50;45.23;97316.88;105130;1298;22465;-83
2022/10/13 08:37:27;;;;;;;7.80;5.70;;;;;;;18.81;45.86;97315.15;105152;1288;23794;-84
2022/10/13 08:39:58;;;;;;;10.00;5.50;;;;;;;18.27;46.91;97317.67;105150;1298;22472;-84
2022/10/13 08:42:29;;;;;;;6.70;4.90;;;;;;;17.84;47.72;97314.64;105148;1285;22476;-84
2022/10/13 08:45:03;;;;;;;7.90;5.00;;;;;;;17.39;48.34;97315.65;105136;1305;22591;-84
2022/10/13 08:47:42;;;;;;;9.10;5.70;;;;;;;17.01;48.95;97314.55;105186;1304;22971;-84
2022/10/13 08:50:17;;;;;;;7.00;5.00;;;;;;;16.67;49.82;97316.13;105152;1305;22499;-84
2022/10/13 08:52:54;;;;;;;9.40;5.70;;;;;;;16.48;50.24;97315.59;105162;1292;22466;-84
2022/10/13 08:55:33;;;;;;;8.30;4.90;;;;;;;16.18;50.93;97312.50;105121;1306;26700;-84
2022/10/13 08:58:11;;;;;;;7.50;5.00;;;;;;;16.02;51.45;97316.16;105168;1291;22523;-85
2022/10/13 09:00:43;;;;;;;7.20;4.60;;;;;;;15.80;51.99;97312.27;105163;1289;24513;-84
2022/10/13 09:03:24;;;;;;;7.40;4.40;;;;;;;15.70;52.34;97316.19;105178;1305;22511;-84
2022/10/13 09:06:09;;;;;;;8.50;4.90;;;;;;;15.63;52.61;97312.61;105102;1288;22464;-84
2022/10/13 09:08:44;;;;;;;10.20;4.60;;;;;;;15.67;53.17;97310.85;105166;1291;22481;-84
2022/10/13 09:11:17;;;;;;;7.30;4.30;;;;;;;15.79;53.36;97312.77;105182;1303;22467;-84
2022/10/13 09:13:48;;;;;;;8.30;4.40;;;;;;;15.87;53.42;97313.15;105133;1304;24228;-84
2022/10/13 09:16:28;;;;;;;6.00;4.40;;;;;;;15.93;53.89;97314.94;105091;1306;24696;-84
2022/10/13 09:19:15;;;;;;;4.90;4.10;;;;;;;15.99;53.40;97310.77;105195;1306;23057;-85
2022/10/13 09:21:46;;;;;;;8.10;4.90;;;;;;;16.05;53.39;97307.65;105146;1305;22512;-85
2022/10/13 09:24:18;;;;;;;6.20;3.90;;;;;;;16.05;53.20;97303.52;105131;1289;22469;-85
2022/10/13 09:26:51;;;;;;;6.20;4.30;;;;;;;16.07;53.36;97305.59;105132;1306;25279;-84
2022/10/13 09:29:26;;;;;;;6.40;4.10;;;;;;;16.05;53.00;97302.16;105157;1282;25538;-84
2022/10/13 09:32:13;;;;;;;8.10;4.10;;;;;;;15.98;53.17;97298.95;105183;1298;22608;-84
2022/10/13 09:34:44;;;;;;;6.10;3.50;;;;;;;16.02;53.09;97297.64;105113;1291;23527;-84
2022/10/13 09:37:23;;;;;;;6.10;3.70;;;;;;;15.94;52.72;97299.02;105128;1304;22484;-84
2022/10/13 09:40:19;;;;;;;6.20;4.10;;;;;;;15.89;53.30;97298.15;105174;1285;22522;-86
2022/10/13 09:42:54;;;;;;;5.90;4.10;;;;;;;15.94;53.53;97297.85;105156;1283;22524;-86
2022/10/13 09:45:29;;;;;;;6.70;3.40;;;;;;;16.00;53.14;97294.53;105088;1304;26570;-86
2022/10/13 09:48:04;;;;;;;9.80;4.40;;;;;;;16.08;53.80;97294.55;105084;1300;24304;-86
2022/10/13 09:50:48;;;;;;;7.80;4.30;;;;;;;16.27;53.83;97292.31;105065;1306;22513;-85
2022/10/13 09:53:26;;;;;;;9.30;4.70;;;;;;;16.39;54.20;97288.60;105038;1281;22472;-86
2022/10/13 09:56:17;;;;;;;7.50;4.30;;;;;;;16.56;54.03;97283.73;105076;1284;22478;-86
2022/10/13 09:58:57;;;;;;;6.20;4.00;;;;;;;16.68;53.42;97281.05;105141;1304;22480;-86
2022/10/13 10:01:34;;;;;;;10.90;4.60;;;;;;;16.74;53.31;97280.76;105163;1298;22481;-86
2022/10/13 10:04:13;;;;;;;6.20;3.90;;;;;;;16.91;53.42;97276.10;105168;1298;22558;-86
2022/10/13 10:06:46;;;;;;;7.70;3.90;;;;;;;17.01;53.06;97271.09;105063;1304;25315;-86
2022/10/13 10:09:36;;;;;;;6.70;4.30;;;;;;;16.92;52.28;97270.19;105094;1284;22496;-87
2022/10/13 10:12:13;;;;;;;6.60;3.80;;;;;;;16.95;52.91;97260.31;105105;1305;22575;-87
2022/10/13 10:14:44;;;;;;;5.20;3.60;;;;;;;17.01;52.63;97254.33;105016;1304;25352;-86
2022/10/13 10:17:26;;;;;;;6.00;3.60;;;;;;;17.10;52.67;97254.13;105104;1291;22603;-87
2022/10/13 10:20:09;;;;;;;7.70;3.60;;;;;;;17.20;53.10;97251.04;105102;1305;25248;-87
2022/10/13 10:22:49;;;;;;;7.10;3.30;;;;;;;17.32;52.28;97244.82;105039;1305;22580;-87
2022/10/13 10:25:31;;;;;;;7.40;3.90;;;;;;;17.41;52.92;97242.91;105039;1292;22478;-87
2022/10/13 10:28:45;;;;;;;6.60;4.60;;;;;;;17.51;53.70;97241.08;105036;1297;22589;-87
2022/10/13 10:31:26;;;;;;;8.40;4.60;;;;;;;17.64;54.04;97236.98;104945;1281;22967;-86
2022/10/13 10:34:27;;;;;;;7.60;4.30;;;;;;;17.77;54.44;97234.55;105051;1303;22490;-86
2022/10/13 10:37:19;;;;;;;8.90;4.80;;;;;;;17.91;54.68;97231.69;105051;1304;35022;-86
2022/10/13 10:39:58;;;;;;;7.90;3.70;;;;;;;17.99;54.31;97229.14;105091;1299;23189;-85
2022/10/13 10:43:19;;;;;;;9.60;4.80;;;;;;;18.04;54.31;97225.58;105063;1304;22474;-86
2022/10/13 10:45:50;;;;;;;7.00;4.60;;;;;;;18.04;54.36;97224.13;105013;1305;22470;-86
2022/10/13 10:48:23;;;;;;;7.60;4.80;;;;;;;18.09;54.37;97221.89;105054;1306;23058;-87
2022/10/13 10:50:55;;;;;;;8.90;4.20;;;;;;;18.13;54.32;97223.73;105067;1292;25298;-86
2022/10/13 10:53:34;;;;;;;9.10;4.60;;;;;;;18.14;54.19;97225.08;105132;1304;25389;-86
2022/10/13 10:56:17;;;;;;;9.50;4.90;;;;;;;18.16;54.11;97223.36;105073;1281;22487;-87
2022/10/13 10:58:54;;;;;;;10.20;4.90;;;;;;;18.17;54.56;97218.04;105068;1306;22517;-87
2022/10/13 11:01:35;;;;;;;8.40;4.60;;;;;;;18.19;54.38;97216.91;105095;1291;22477;-86
2022/10/13 11:04:40;;;;;;;9.00;4.30;;;;;;;18.09;53.97;97213.59;105057;1288;22465;-86
2022/10/13 11:07:36;;;;;;;8.70;4.90;;;;;;;18.04;53.49;97212.82;105174;1296;22681;-87
2022/10/13 11:10:21;;;;;;;8.60;5.20;;;;;;;17.81;53.44;97212.67;105125;1305;22468;-86
2022/10/13 11:13:19;;;;;;;6.70;4.30;;;;;;;17.68;53.69;97209.16;105167;1300;24304;-86
2022/10/13 11:15:51;;;;;;;8.00;4.60;;;;;;;17.54;53.33;97203.79;105046;1282;22576;-86
2022/10/13 11:19:10;;;;;;;10.60;5.40;;;;;;;17.51;53.90;97198.00;104934;1297;176507;-86
2022/10/13 11:22:21;;;;;;;10.40;5.10;;;;;;;17.48;54.06;97193.05;104695;1309;22901;-86
2022/10/13 11:24:57;;;;;;;;;;;;;;;17.61;54.46;97185.75;104619;1284;25299;-86
2022/10/13 11:27:45;;;;;;;10.20;5.00;;;;;;;17.65;54.75;97185.05;105091;1304;22680;-85
2022/10/13 11:30:46;;;;;;;9.40;5.90;;;;;;;17.80;54.69;97181.43;105152;1306;22516;-86
2022/10/13 11:33:51;;;;;;;43.90;22.30;;;;;;;17.82;54.33;97180.10;105181;1304;22534;-86
2022/10/13 11:36:56;;;;;;;14.90;8.20;;;;;;;17.85;53.20;97178.08;105117;1296;22467;-86
2022/10/13 11:40:09;;;;;;;47.40;31.60;;;;;;;17.66;53.67;97175.48;105181;1285;22497;-85
2022/10/13 11:43:11;;;;;;;14.10;9.40;;;;;;;17.74;53.42;97172.77;105140;1296;22552;-86
2022/10/13 11:46:20;;;;;;;92.40;52.90;;;;;;;17.53;53.32;97169.98;105102;1306;23422;-86
2022/10/13 11:49:17;;;;;;;123.30;80.50;;;;;;;17.55;54.10;97170.77;105132;1294;22474;-86
2022/10/13 11:52:05;;;;;;;67.10;43.80;;;;;;;17.70;54.60;97165.87;105104;1306;22522;-86
2022/10/13 11:54:40;;;;;;;187.70;117.20;;;;;;;17.71;53.75;97168.90;105052;1301;22473;-84
2022/10/13 11:57:22;;;;;;;43.40;29.10;;;;;;;17.59;53.48;97165.83;105110;1289;22459;-86
2022/10/13 11:59:55;;;;;;;12.60;7.80;;;;;;;17.50;54.07;97165.17;105154;1281;22478;-85
2022/10/13 12:02:27;;;;;;;11.90;8.40;;;;;;;17.63;54.71;97163.86;105149;1283;22470;-86
2022/10/13 12:05:06;;;;;;;53.40;36.80;;;;;;;17.65;53.67;97157.91;105161;1306;22481;-86